createdAt,value
2022-08-18T00:01:14.716Z,-146.88
2022-08-18T00:03:56.899Z,-146.88
2022-08-18T00:06:31.444Z,-146.88
2022-08-18T00:09:00.169Z,-146.88
2022-08-18T00:11:40.355Z,-146.88
2022-08-18T00:14:13.853Z,-146.88
2022-08-18T00:16:52.052Z,-146.88
2022-08-18T00:19:20.391Z,-146.88
2022-08-18T00:22:08.472Z,-146.88
2022-08-18T00:24:48.727Z,-146.88
2022-08-18T00:27:19.668Z,-146.88
2022-08-18T00:29:51.907Z,-146.88
2022-08-18T00:32:21.027Z,-146.88
2022-08-18T00:34:49.318Z,-146.88
2022-08-18T00:37:17.660Z,-146.88
2022-08-18T00:39:47.888Z,-146.88
2022-08-18T00:42:27.292Z,-146.88
2022-08-18T00:45:05.375Z,-146.88
2022-08-18T00:47:42.718Z,-146.88
2022-08-18T00:50:16.097Z,-146.88
2022-08-18T00:52:48.954Z,-146.88
2022-08-18T00:55:19.601Z,-146.88
2022-08-18T00:57:49.697Z,-146.88
2022-08-18T01:00:19.649Z,-146.88
2022-08-18T01:02:49.150Z,-146.88
2022-08-18T01:05:23.107Z,-146.88
2022-08-18T01:07:52.238Z,-146.88
2022-08-18T01:10:21.797Z,-146.88
2022-08-18T01:12:51.028Z,-146.88
2022-08-18T01:15:29.566Z,-146.88
2022-08-18T01:18:16.481Z,-146.88
2022-08-18T01:21:04.116Z,-146.88
2022-08-18T01:23:33.735Z,-146.88
2022-08-18T01:26:00.946Z,-146.88
2022-08-18T01:28:29.680Z,-146.88
2022-08-18T01:30:59.321Z,-146.88
2022-08-18T01:33:30.289Z,-146.88
2022-08-18T01:35:58.631Z,-146.88
2022-08-18T01:38:27.449Z,-146.88
2022-08-18T01:41:24.065Z,-146.88
2022-08-18T01:43:46.415Z,-146.88
2022-08-18T01:46:20.133Z,-146.88
2022-08-18T01:48:49.530Z,-146.88
2022-08-18T01:51:17.987Z,-146.88
2022-08-18T01:53:46.965Z,-146.88
2022-08-18T01:56:17.834Z,-146.88
2022-08-18T01:58:47.817Z,-146.88
2022-08-18T02:01:16.537Z,-146.88
2022-08-18T02:03:49.129Z,-146.88
2022-08-18T02:06:18.691Z,-146.88
2022-08-18T02:09:00.605Z,-146.88
2022-08-18T02:11:30.323Z,-146.88
2022-08-18T02:13:58.405Z,-146.88
2022-08-18T02:16:26.431Z,-146.88
2022-08-18T02:18:54.721Z,-146.88
2022-08-18T02:21:23.318Z,-146.88
2022-08-18T02:23:53.703Z,-146.88
2022-08-18T02:26:22.305Z,-146.88
2022-08-18T02:28:51.999Z,-146.88
2022-08-18T02:31:21.570Z,-146.88
2022-08-18T02:33:52.009Z,-146.88
2022-08-18T02:36:21.184Z,-146.88
2022-08-18T02:38:56.731Z,-146.88
2022-08-18T02:41:29.630Z,-146.88
2022-08-18T02:44:00.158Z,-146.88
2022-08-18T02:46:30.234Z,-146.88
2022-08-18T02:49:00.745Z,-146.88
2022-08-18T02:51:28.839Z,-146.88
2022-08-18T02:53:59.857Z,-146.88
2022-08-18T02:56:40.551Z,-146.88
2022-08-18T02:59:13.221Z,-146.88
2022-08-18T03:01:42.945Z,-146.88
2022-08-18T03:04:12.120Z,-146.88
2022-08-18T03:06:40.449Z,-146.88
2022-08-18T03:09:12.278Z,-146.88
2022-08-18T03:11:40.448Z,-146.88
2022-08-18T03:14:11.647Z,-146.88
2022-08-18T03:16:47.185Z,-146.88
2022-08-18T03:19:22.637Z,-146.88
2022-08-18T03:21:51.003Z,-146.88
2022-08-18T03:24:22.293Z,-146.88
2022-08-18T03:26:51.407Z,-146.88
2022-08-18T03:29:19.565Z,-146.88
2022-08-18T03:31:49.284Z,-146.88
2022-08-18T03:34:19.950Z,-146.88
2022-08-18T03:36:49.238Z,-146.88
2022-08-18T03:39:20.628Z,-146.88
2022-08-18T03:42:00.209Z,-146.88
2022-08-18T03:44:30.544Z,-146.88
2022-08-18T03:47:01.620Z,-146.88
2022-08-18T03:49:29.646Z,-146.88
2022-08-18T03:52:01.060Z,-146.88
2022-08-18T03:54:29.763Z,-146.88
2022-08-18T03:56:57.855Z,-146.88
2022-08-18T03:59:27.750Z,-146.88
2022-08-18T04:01:56.567Z,-146.88
2022-08-18T04:04:27.395Z,-146.88
2022-08-18T04:06:58.208Z,-146.88
2022-08-18T04:09:27.752Z,-146.88
2022-08-18T04:11:56.458Z,-146.88
2022-08-18T04:14:26.086Z,-146.88
2022-08-18T04:16:54.373Z,-146.88
2022-08-18T04:19:26.510Z,-146.88
2022-08-18T04:21:57.803Z,-146.88
2022-08-18T04:24:28.240Z,-146.88
2022-08-18T04:27:01.182Z,-146.88
2022-08-18T04:29:30.376Z,-146.88
2022-08-18T04:31:58.570Z,-146.88
2022-08-18T04:34:27.481Z,-146.88
2022-08-18T04:36:56.881Z,-146.88
2022-08-18T04:39:25.847Z,-146.88
2022-08-18T04:41:54.392Z,-146.88
2022-08-18T04:44:22.748Z,-146.88
2022-08-18T04:46:53.070Z,-146.88
2022-08-18T04:49:22.417Z,-146.88
2022-08-18T04:52:26.847Z,-146.88
2022-08-18T04:54:55.166Z,-146.88
2022-08-18T04:57:24.087Z,-146.88
2022-08-18T04:59:53.563Z,-146.88
2022-08-18T05:02:22.747Z,-146.88
2022-08-18T05:04:52.721Z,-146.88
2022-08-18T05:07:22.653Z,-146.88
2022-08-18T05:09:52.079Z,-146.88
2022-08-18T05:12:25.960Z,-146.88
2022-08-18T05:14:57.116Z,-146.88
2022-08-18T05:17:28.878Z,-146.88
2022-08-18T05:20:00.770Z,-146.88
2022-08-18T05:22:31.089Z,-146.88
2022-08-18T05:25:00.478Z,-146.88
2022-08-18T05:27:34.199Z,-146.88
2022-08-18T05:30:02.618Z,-146.88
2022-08-18T05:32:47.091Z,-146.88
2022-08-18T05:35:19.774Z,-146.88
2022-08-18T05:37:58.478Z,-146.88
2022-08-18T05:40:28.259Z,-146.88
2022-08-18T05:42:58.619Z,-146.88
2022-08-18T05:45:27.630Z,-146.88
2022-08-18T05:47:58.771Z,-146.88
2022-08-18T05:50:27.502Z,-146.88
2022-08-18T05:52:57.011Z,-146.88
2022-08-18T05:55:48.076Z,-146.88
2022-08-18T05:58:20.939Z,-146.88
2022-08-18T06:00:57.510Z,-146.88
2022-08-18T06:03:30.894Z,-146.88
2022-08-18T06:06:16.465Z,-146.88
2022-08-18T06:08:48.332Z,-146.88
2022-08-18T06:11:17.320Z,-146.88
2022-08-18T06:13:59.276Z,-146.88
2022-08-18T06:16:35.811Z,-146.88
2022-08-18T06:19:09.504Z,-146.88
2022-08-18T06:21:43.983Z,-146.88
2022-08-18T06:24:19.334Z,-146.88
2022-08-18T06:26:51.819Z,-146.88
2022-08-18T06:29:30.023Z,-146.88
2022-08-18T06:32:06.162Z,-146.88
2022-08-18T06:34:42.663Z,-146.88
2022-08-18T06:37:20.155Z,-146.88
2022-08-18T06:39:49.367Z,-146.88
2022-08-18T06:42:21.756Z,-146.88
2022-08-18T06:44:54.070Z,-146.88
2022-08-18T06:47:31.330Z,-146.88
2022-08-18T06:50:05.269Z,-146.88
2022-08-18T06:52:39.989Z,-146.88
2022-08-18T06:55:09.238Z,-146.88
2022-08-18T06:57:38.880Z,-146.88
2022-08-18T07:03:21.978Z,-146.88
2022-08-18T07:06:01.018Z,-146.88
2022-08-18T07:08:31.974Z,-146.88
2022-08-18T07:11:13.579Z,-146.88
2022-08-18T07:13:44.840Z,-146.88
2022-08-18T07:16:40.567Z,-146.88
2022-08-18T07:19:15.277Z,-146.88
2022-08-18T07:22:02.661Z,-146.88
2022-08-18T07:24:33.596Z,-146.88
2022-08-18T07:27:03.355Z,-146.88
2022-08-18T07:29:33.013Z,-146.88
2022-08-18T07:32:04.325Z,-146.88
2022-08-18T07:34:37.591Z,-146.88
2022-08-18T07:37:09.379Z,-146.88
2022-08-18T07:39:40.119Z,-146.88
2022-08-18T07:42:53.898Z,-146.88
2022-08-18T07:45:13.699Z,-146.88
2022-08-18T07:47:47.124Z,-146.88
2022-08-18T07:50:27.057Z,-146.88
2022-08-18T07:53:10.611Z,-146.88
2022-08-18T07:55:42.716Z,-146.88
2022-08-18T07:58:17.467Z,-146.88
2022-08-18T08:01:05.241Z,-146.88
2022-08-18T08:03:38.197Z,-146.88
2022-08-18T08:06:09.223Z,-146.88
2022-08-18T08:08:41.083Z,-146.88
2022-08-18T08:11:14.826Z,-146.88
2022-08-18T08:13:55.812Z,-146.88
2022-08-18T08:16:33.357Z,-146.88
2022-08-18T08:19:12.323Z,-146.88
2022-08-18T08:21:45.586Z,-146.88
2022-08-18T08:24:24.882Z,-146.88
2022-08-18T08:26:56.532Z,-146.88
2022-08-18T08:29:30.621Z,-146.88
2022-08-18T08:32:02.836Z,-146.88
2022-08-18T08:34:36.970Z,-146.88
2022-08-18T08:37:08.494Z,-146.88
2022-08-18T08:39:40.575Z,-146.88
2022-08-18T08:42:31.005Z,-146.88
2022-08-18T08:45:03.720Z,-146.88
2022-08-18T08:47:36.159Z,-146.88
2022-08-18T08:50:08.683Z,-146.88
2022-08-18T08:52:39.769Z,-146.88
2022-08-18T08:55:11.137Z,-146.88
2022-08-18T08:57:43.358Z,-146.88
2022-08-18T09:00:11.804Z,-146.88
2022-08-18T09:02:48.985Z,-146.88
2022-08-18T09:05:21.249Z,-146.88
2022-08-18T09:08:03.224Z,-146.88
2022-08-18T09:10:43.230Z,-146.88
2022-08-18T09:13:29.130Z,-146.88
2022-08-18T09:16:22.317Z,-146.88
2022-08-18T09:18:56.633Z,-146.88
2022-08-18T09:21:37.477Z,-146.88
2022-08-18T09:24:11.111Z,-146.88
2022-08-18T09:26:45.103Z,-146.88
2022-08-18T09:29:19.014Z,-146.88
2022-08-18T09:31:47.480Z,-146.88
2022-08-18T09:34:31.987Z,-146.88
2022-08-18T09:37:15.116Z,-146.88
2022-08-18T09:40:11.075Z,-146.88
2022-08-18T09:42:59.935Z,-146.88
2022-08-18T09:45:54.720Z,-146.88
2022-08-18T09:51:24.774Z,-146.88
2022-08-18T09:53:54.606Z,-146.88
2022-08-18T09:56:53.325Z,-146.88
2022-08-18T09:59:40.614Z,-146.88
2022-08-18T10:05:15.664Z,-146.88
2022-08-18T10:07:45.057Z,-146.88
2022-08-18T10:11:01.788Z,-146.88
2022-08-18T10:13:14.671Z,-146.88
2022-08-18T10:15:49.529Z,-146.88
2022-08-18T10:18:27.685Z,-146.88
2022-08-18T10:21:01.128Z,-146.88
2022-08-18T10:23:48.007Z,-146.88
2022-08-18T10:26:41.727Z,-146.88
2022-08-18T10:29:41.994Z,-146.88
2022-08-18T10:32:18.837Z,-146.88
2022-08-18T10:34:51.897Z,-146.88
2022-08-18T10:37:25.934Z,-146.88
2022-08-18T10:39:55.897Z,-146.88
2022-08-18T10:42:30.847Z,-146.88
2022-08-18T10:45:06.638Z,-146.88
2022-08-18T10:47:35.599Z,-146.88
2022-08-18T10:50:10.985Z,-146.88
2022-08-18T10:52:54.588Z,-146.88
2022-08-18T10:55:48.124Z,-146.88
2022-08-18T10:58:30.451Z,-146.88
2022-08-18T11:01:08.392Z,-146.88
2022-08-18T11:03:51.679Z,-146.88
2022-08-18T11:06:26.732Z,-146.88
2022-08-18T11:08:57.535Z,-146.88
2022-08-18T11:14:25.209Z,-146.88
2022-08-18T11:16:59.306Z,-146.88
2022-08-18T11:19:27.840Z,-146.88
2022-08-18T11:21:57.297Z,-146.88
2022-08-18T11:24:27.164Z,-146.88
2022-08-18T11:26:57.629Z,-146.88
2022-08-18T11:32:21.302Z,-146.88
2022-08-18T11:34:52.794Z,-146.88
2022-08-18T11:37:27.102Z,-146.88
2022-08-18T11:39:56.557Z,-146.88
2022-08-18T11:42:29.419Z,-146.88
2022-08-18T11:45:04.093Z,-146.88
2022-08-18T11:47:32.650Z,-146.88
2022-08-18T11:50:09.237Z,-146.88
2022-08-18T11:52:54.017Z,-146.88
2022-08-18T11:55:30.613Z,-146.88
2022-08-18T11:58:00.358Z,-146.88
2022-08-18T12:01:02.954Z,-146.88
2022-08-18T12:03:38.186Z,-146.88
2022-08-18T12:06:19.322Z,-146.88
2022-08-18T12:08:58.109Z,-146.88
2022-08-18T12:11:28.926Z,-146.88
2022-08-18T12:16:54.143Z,-146.88
2022-08-18T12:19:24.331Z,-146.88
2022-08-18T12:21:53.514Z,-146.88
2022-08-18T12:24:26.051Z,-146.88
2022-08-18T12:26:54.702Z,-146.88
2022-08-18T12:29:28.099Z,-146.88
2022-08-18T12:32:00.961Z,-146.88
2022-08-18T12:34:29.814Z,-146.88
2022-08-18T12:37:00.929Z,-146.88
2022-08-18T12:39:31.885Z,-146.88
2022-08-18T12:42:00.172Z,-146.88
2022-08-18T12:44:28.791Z,-146.88
2022-08-18T12:46:57.345Z,-146.88
2022-08-18T12:49:28.159Z,-146.88
2022-08-18T12:51:57.887Z,-146.88
2022-08-18T12:54:26.624Z,-146.88
2022-08-18T12:56:59.134Z,-146.88
2022-08-18T12:59:32.469Z,-146.88
2022-08-18T13:02:05.727Z,-146.88
2022-08-18T13:04:34.451Z,-146.88
2022-08-18T13:07:05.693Z,-146.88
2022-08-18T13:09:52.839Z,-146.88
2022-08-18T13:12:25.737Z,-146.88
2022-08-18T13:14:55.791Z,-146.88
2022-08-18T13:17:29.665Z,-146.88
2022-08-18T13:20:01.463Z,-146.88
2022-08-18T13:22:32.305Z,-146.88
2022-08-18T13:25:01.542Z,-146.88
2022-08-18T13:27:35.664Z,-146.88
2022-08-18T13:30:29.391Z,-146.88
2022-08-18T13:33:00.744Z,-146.88
2022-08-18T13:35:35.493Z,-146.88
2022-08-18T13:38:14.613Z,-146.88
2022-08-18T13:40:48.496Z,-146.88
2022-08-18T13:43:18.995Z,-146.88
2022-08-18T13:45:52.860Z,-146.88
2022-08-18T13:48:24.178Z,-146.88
2022-08-18T13:50:55.741Z,-146.88
2022-08-18T13:53:24.698Z,-146.88
2022-08-18T13:55:54.898Z,-146.88
2022-08-18T13:58:24.705Z,-146.88
2022-08-18T14:01:15.940Z,-146.88
2022-08-18T14:03:47.651Z,-146.88
2022-08-18T14:06:18.443Z,-146.88
2022-08-18T14:08:51.178Z,-146.88
2022-08-18T14:11:19.981Z,-146.88
2022-08-18T14:13:50.158Z,-146.88
2022-08-18T14:16:19.513Z,-146.88
2022-08-18T14:19:09.439Z,-146.88
2022-08-18T14:21:57.994Z,-146.88
2022-08-18T14:24:43.859Z,-146.88
2022-08-18T14:27:17.796Z,-146.88
2022-08-18T14:29:49.822Z,-146.88
2022-08-18T14:32:21.982Z,-146.88
2022-08-18T14:35:00.260Z,-146.88
2022-08-18T14:37:29.235Z,-146.88
2022-08-18T14:39:58.401Z,-146.88
2022-08-18T14:44:32.266Z,28.98
2022-08-18T14:47:01.204Z,28.95
2022-08-18T14:49:31.225Z,29.17
2022-08-18T14:52:00.404Z,28.99
2022-08-18T14:54:30.102Z,29.14
2022-08-18T14:56:59.943Z,29.17
2022-08-18T14:59:30.983Z,29.24
2022-08-18T15:02:11.205Z,29.26
2022-08-18T15:04:52.916Z,28.90
2022-08-18T15:07:25.776Z,28.65
2022-08-18T15:10:16.131Z,28.67
2022-08-18T15:12:43.891Z,28.68
2022-08-18T15:15:15.957Z,28.49
2022-08-18T15:17:50.214Z,28.65
2022-08-18T15:20:23.985Z,28.72
2022-08-18T15:23:24.920Z,28.48
2022-08-18T15:25:56.855Z,28.24
2022-08-18T15:28:28.073Z,28.00
2022-08-18T15:33:50.165Z,27.99
2022-08-18T15:36:28.875Z,27.98
2022-08-18T15:38:58.336Z,27.72
2022-08-18T15:41:34.767Z,27.50
2022-08-18T15:44:04.941Z,27.68
2022-08-18T15:46:36.340Z,28.04
2022-08-18T15:49:11.300Z,27.91
2022-08-18T15:51:45.207Z,28.17
2022-08-18T15:54:14.504Z,27.86
2022-08-18T15:56:43.273Z,27.71
2022-08-18T15:59:12.738Z,27.38
2022-08-18T16:01:46.286Z,27.20
2022-08-18T16:04:22.013Z,27.38
2022-08-18T16:06:56.319Z,27.15
2022-08-18T16:09:26.601Z,26.82
2022-08-18T16:11:57.725Z,26.87
2022-08-18T16:14:31.682Z,26.51
2022-08-18T16:17:06.092Z,26.54
2022-08-18T16:19:38.834Z,26.20
2022-08-18T16:22:07.754Z,26.02
2022-08-18T16:24:36.158Z,26.61
2022-08-18T16:27:06.728Z,26.46
2022-08-18T16:29:35.491Z,26.10
2022-08-18T16:32:06.443Z,25.85
2022-08-18T16:34:45.726Z,26.02
2022-08-18T16:39:44.557Z,26.16
2022-08-18T16:42:13.733Z,25.62
2022-08-18T16:44:42.816Z,25.98
2022-08-18T16:47:14.373Z,25.31
2022-08-18T16:49:45.639Z,25.24
2022-08-18T16:52:14.977Z,25.62
2022-08-18T16:54:44.982Z,25.16
2022-08-18T16:57:14.132Z,25.38
2022-08-18T16:59:59.806Z,25.55
2022-08-18T17:02:47.637Z,25.09
2022-08-18T17:05:18.212Z,25.27
2022-08-18T17:07:47.956Z,24.42
2022-08-18T17:10:16.566Z,25.33
2022-08-18T17:12:45.330Z,24.58
2022-08-18T17:15:15.219Z,25.25
2022-08-18T17:17:45.158Z,24.29
2022-08-18T17:20:16.719Z,24.60
2022-08-18T17:22:47.766Z,24.59
2022-08-18T17:25:21.501Z,24.43
2022-08-18T17:27:52.976Z,24.99
2022-08-18T17:30:23.708Z,25.16
2022-08-18T17:33:00.769Z,24.65
2022-08-18T17:35:40.357Z,25.02
2022-08-18T17:38:13.946Z,24.55
2022-08-18T17:40:48.604Z,24.32
2022-08-18T17:43:19.858Z,24.72
2022-08-18T17:45:54.906Z,23.85
2022-08-18T17:48:29.922Z,23.94
2022-08-18T17:51:32.582Z,24.53
2022-08-18T17:54:03.589Z,24.39
2022-08-18T17:56:37.282Z,24.27
2022-08-18T17:59:46.553Z,24.22
2022-08-18T18:02:28.534Z,23.20
2022-08-18T18:05:01.791Z,23.91
2022-08-18T18:07:33.642Z,23.51
2022-08-18T18:10:05.994Z,24.00
2022-08-18T18:12:36.782Z,23.24
2022-08-18T18:15:08.449Z,23.71
2022-08-18T18:17:39.137Z,23.55
2022-08-18T18:20:23.902Z,23.57
2022-08-18T18:22:53.352Z,23.14
2022-08-18T18:25:34.754Z,23.54
2022-08-18T18:28:03.870Z,23.37
2022-08-18T18:30:32.958Z,22.90
2022-08-18T18:33:02.754Z,23.47
2022-08-18T18:35:54.290Z,22.47
2022-08-18T18:38:30.516Z,23.39
2022-08-18T18:41:01.548Z,23.19
2022-08-18T18:43:38.344Z,22.76
2022-08-18T18:46:27.377Z,22.75
2022-08-18T18:49:08.016Z,23.30
2022-08-18T18:51:43.658Z,23.31
2022-08-18T18:54:21.519Z,23.06
2022-08-18T18:56:56.469Z,23.26
2022-08-18T18:59:41.079Z,22.24
2022-08-18T19:02:34.059Z,22.29
2022-08-18T19:05:14.272Z,22.90
2022-08-18T19:08:03.768Z,22.04
2022-08-18T19:10:45.423Z,22.21
2022-08-18T19:13:32.308Z,21.53
2022-08-18T19:16:23.722Z,22.13
2022-08-18T19:19:36.213Z,21.77
2022-08-18T19:22:04.198Z,22.64
2022-08-18T19:24:51.105Z,21.71
2022-08-18T19:27:28.638Z,22.56
2022-08-18T19:30:03.904Z,21.76
2022-08-18T19:32:39.352Z,22.39
2022-08-18T19:35:35.892Z,21.53
2022-08-18T19:38:24.711Z,21.21
2022-08-18T19:41:05.957Z,21.89
2022-08-18T19:43:44.984Z,22.08
2022-08-18T19:46:22.778Z,21.92
2022-08-18T19:48:56.698Z,21.94
2022-08-18T19:51:33.445Z,21.68
2022-08-18T19:54:21.739Z,21.04
2022-08-18T19:57:07.702Z,21.01
2022-08-18T20:00:12.897Z,21.69
2022-08-18T20:03:18.713Z,21.92
2022-08-18T20:05:55.048Z,21.81
2022-08-18T20:08:51.406Z,21.22
2022-08-18T20:11:41.834Z,21.62
2022-08-18T20:14:18.819Z,21.66
2022-08-18T20:17:17.818Z,21.17
2022-08-18T20:19:51.061Z,20.77
2022-08-18T20:22:31.722Z,21.23
2022-08-18T20:25:06.999Z,21.12
2022-08-18T20:27:38.469Z,21.33
2022-08-18T20:30:34.149Z,20.89
2022-08-18T20:33:30.882Z,20.76
2022-08-18T20:36:14.386Z,20.94
2022-08-18T20:38:46.918Z,21.28
2022-08-18T20:41:39.040Z,20.65
2022-08-18T20:44:47.497Z,19.99
2022-08-18T20:48:02.084Z,20.54
2022-08-18T20:51:00.118Z,20.44
2022-08-18T20:54:03.275Z,20.45
2022-08-18T20:56:46.662Z,20.67
2022-08-18T20:59:21.507Z,19.86
2022-08-18T21:02:22.469Z,19.74
2022-08-18T21:04:56.595Z,19.73
2022-08-18T21:07:36.446Z,20.04
2022-08-18T21:10:15.285Z,19.80
2022-08-18T21:12:52.825Z,19.96
2022-08-18T21:15:24.547Z,19.62
2022-08-18T21:18:09.454Z,20.29
2022-08-18T21:20:41.017Z,20.54
2022-08-18T21:23:13.148Z,20.29
2022-08-18T21:25:56.123Z,20.21
2022-08-18T21:28:32.509Z,19.54
2022-08-18T21:31:29.069Z,20.12
2022-08-18T21:33:56.562Z,20.24
2022-08-18T21:36:31.700Z,20.29
2022-08-18T21:39:06.136Z,19.62
2022-08-18T21:41:46.686Z,19.21
2022-08-18T21:44:23.135Z,20.01
2022-08-18T21:47:05.838Z,19.98
2022-08-18T21:49:36.415Z,19.96
2022-08-18T21:52:08.163Z,19.63
2022-08-18T21:58:21.482Z,19.21
2022-08-18T22:01:41.258Z,18.81
2022-08-18T22:04:42.915Z,18.71
2022-08-18T22:07:34.134Z,19.63
2022-08-18T22:10:40.593Z,19.41
2022-08-18T22:13:37.410Z,20.09
2022-08-18T22:16:36.892Z,19.60
2022-08-18T22:19:25.849Z,18.84
2022-08-18T22:22:46.912Z,19.82
2022-08-18T22:25:25.679Z,18.91
2022-08-18T22:27:57.767Z,19.66
2022-08-18T22:30:27.005Z,19.68
2022-08-18T22:32:55.549Z,19.17
2022-08-18T22:35:30.412Z,19.55
2022-08-18T22:38:01.645Z,19.30
2022-08-18T22:40:30.373Z,19.51
2022-08-18T22:43:31.941Z,20.33
2022-08-18T22:46:02.092Z,19.21
2022-08-18T22:51:25.603Z,20.25
2022-08-18T22:53:59.617Z,19.73
2022-08-18T22:56:34.474Z,19.77
2022-08-18T22:59:13.383Z,19.31
2022-08-18T23:01:45.315Z,19.88
2022-08-18T23:04:16.047Z,20.58
2022-08-18T23:06:52.402Z,19.55
2022-08-18T23:09:29.743Z,19.67
2022-08-18T23:12:14.926Z,19.34
2022-08-18T23:14:46.472Z,20.22
2022-08-18T23:17:15.833Z,19.20
2022-08-18T23:19:46.651Z,19.94
2022-08-18T23:22:16.118Z,19.79
2022-08-18T23:24:46.142Z,20.15
2022-08-18T23:27:14.804Z,20.04
2022-08-18T23:29:43.613Z,20.24
2022-08-18T23:32:13.183Z,19.83
2022-08-18T23:34:41.632Z,19.70
2022-08-18T23:37:10.836Z,20.23
2022-08-18T23:39:39.814Z,19.90
2022-08-18T23:42:12.906Z,19.80
2022-08-18T23:44:43.404Z,20.07
2022-08-18T23:47:11.968Z,19.41
2022-08-18T23:49:40.480Z,19.57
2022-08-18T23:52:09.696Z,19.27
2022-08-18T23:54:38.622Z,18.90
2022-08-18T23:57:07.442Z,19.34
2022-08-18T23:59:37.798Z,19.28
